PWSweather.com
Personal Weather Stations
Station Observations
WD4JKH
Forsyth, GA 31029

Forsyth, GA 31029

Lat: 33.033225, Lon: -83.927995

Elevation: 709

Station Type: Davis Vantage VUE

High Low Average
Temperature 91.4°F33.0°C 70.7°F21.5°C 81.0°F27.2°C
Dew Point 69.2°F20.7°C 60.3°F15.7°C 65.7°F18.7°C
Winds 5.2 mph 8.4 kmh Calm Calm 1.0 mph SW1.6 kmh SW
Wind Gusts 10.0 mph16.1 kmh -- 4.0 mph6.4 kmh
Humidity 83% 38% 61%
Pressure 30.12 in1020.0 mb 29.98 in1015.2 mb -
Precipitation 0.00 in0.0 mm - -
Hour Temp Dew Point Humidity Winds Wind Gusts Pressure Precip Precip Rate Daily Precip Total
12:01 AM 78.5°F25.8°C 64.6°F18.1°C 62% Calm Calm 2.0 mph3.2 kmh 30.11 in1019.6 mb 0.00 in0.0 mm 0.00 in0.0 mm 0.00 in0.0 mm
12:06 AM 78.1°F25.6°C 64.3°F17.9°C 62% Calm Calm 2.0 mph3.2 kmh 30.11 in1019.6 mb 0.00 in0.0 mm 0.00 in0.0 mm 0.00 in0.0 mm
12:11 AM 77.9°F25.5°C 64.5°F18.1°C 63% Calm Calm 2.0 mph3.2 kmh 30.12 in1020.0 mb 0.00 in0.0 mm 0.00 in0.0 mm 0.00 in0.0 mm
12:16 AM 77.5°F25.3°C 64.6°F18.1°C 64% Calm Calm 1.0 mph1.6 kmh 30.11 in1019.6 mb 0.00 in0.0 mm 0.00 in0.0 mm 0.00 in0.0 mm
12:21 AM 77.1°F25.1°C 64.7°F18.2°C 65% Calm Calm 1.0 mph1.6 kmh 30.11 in1019.6 mb 0.00 in0.0 mm 0.00 in0.0 mm 0.00 in0.0 mm
12:26 AM 76.8°F24.9°C 64.8°F18.2°C 66% Calm Calm 1.0 mph1.6 kmh 30.11 in1019.6 mb 0.00 in0.0 mm 0.00 in0.0 mm 0.00 in0.0 mm
12:31 AM 76.6°F24.8°C 65.5°F18.6°C 68% Calm Calm 1.0 mph1.6 kmh 30.11 in1019.6 mb 0.00 in0.0 mm 0.00 in0.0 mm 0.00 in0.0 mm
12:36 AM 76.2°F24.6°C 65.1°F18.4°C 68% Calm Calm 1.0 mph1.6 kmh 30.11 in1019.6 mb 0.00 in0.0 mm 0.00 in0.0 mm 0.00 in0.0 mm
12:41 AM 75.9°F24.4°C 65.0°F18.3°C 69% Calm Calm 1.0 mph1.6 kmh 30.11 in1019.6 mb 0.00 in0.0 mm 0.00 in0.0 mm 0.00 in0.0 mm
12:46 AM 75.8°F24.3°C 65.9°F18.8°C 71% Calm Calm -- 30.11 in1019.6 mb 0.00 in0.0 mm 0.00 in0.0 mm 0.00 in0.0 mm
12:51 AM 75.2°F24.0°C 65.7°F18.7°C 72% Calm Calm -- 30.11 in1019.6 mb 0.00 in0.0 mm 0.00 in0.0 mm 0.00 in0.0 mm
12:56 AM 74.5°F23.6°C 65.4°F18.6°C 73% Calm Calm -- 30.11 in1019.6 mb 0.00 in0.0 mm 0.00 in0.0 mm 0.00 in0.0 mm
01:01 AM 74.0°F23.3°C 65.0°F18.3°C 73% Calm Calm 1.0 mph1.6 kmh 30.11 in1019.6 mb 0.00 in0.0 mm 0.00 in0.0 mm 0.00 in0.0 mm
01:06 AM 73.9°F23.3°C 65.3°F18.5°C 74% Calm Calm 1.0 mph1.6 kmh 30.10 in1019.3 mb 0.00 in0.0 mm 0.00 in0.0 mm 0.00 in0.0 mm
01:11 AM 73.9°F23.3°C 65.3°F18.5°C 74% Calm Calm 1.0 mph1.6 kmh 30.10 in1019.3 mb 0.00 in0.0 mm 0.00 in0.0 mm 0.00 in0.0 mm
01:16 AM 73.7°F23.2°C 65.1°F18.4°C 74% Calm Calm 1.0 mph1.6 kmh 30.10 in1019.3 mb 0.00 in0.0 mm 0.00 in0.0 mm 0.00 in0.0 mm
01:20 AM 73.7°F23.2°C 65.1°F18.4°C 74% Calm Calm 1.0 mph1.6 kmh 30.10 in1019.3 mb 0.00 in0.0 mm 0.00 in0.0 mm 0.00 in0.0 mm
01:25 AM 73.6°F23.1°C 65.0°F18.3°C 74% Calm Calm 1.0 mph1.6 kmh 30.10 in1019.3 mb 0.00 in0.0 mm 0.00 in0.0 mm 0.00 in0.0 mm
01:30 AM 73.4°F23.0°C 65.4°F18.6°C 76% Calm Calm 1.0 mph1.6 kmh 30.10 in1019.3 mb 0.00 in0.0 mm 0.00 in0.0 mm 0.00 in0.0 mm
01:35 AM 73.4°F23.0°C 65.4°F18.6°C 76% Calm Calm 1.0 mph1.6 kmh 30.10 in1019.3 mb 0.00 in0.0 mm 0.00 in0.0 mm 0.00 in0.0 mm
01:40 AM 73.4°F23.0°C 65.5°F18.6°C 76% Calm Calm -- 30.10 in1019.3 mb 0.00 in0.0 mm 0.00 in0.0 mm 0.00 in0.0 mm
01:45 AM 73.4°F23.0°C 65.5°F18.6°C 76% Calm Calm -- 30.10 in1019.3 mb 0.00 in0.0 mm 0.00 in0.0 mm 0.00 in0.0 mm
01:50 AM 73.5°F23.1°C 65.6°F18.7°C 76% Calm Calm -- 30.10 in1019.3 mb 0.00 in0.0 mm 0.00 in0.0 mm 0.00 in0.0 mm
01:55 AM 73.6°F23.1°C 65.3°F18.5°C 75% Calm Calm -- 30.09 in1019.0 mb 0.00 in0.0 mm 0.00 in0.0 mm 0.00 in0.0 mm
02:00 AM 73.6°F23.1°C 65.3°F18.5°C 75% Calm Calm -- 30.09 in1019.0 mb 0.00 in0.0 mm 0.00 in0.0 mm 0.00 in0.0 mm
02:05 AM 73.6°F23.1°C 65.7°F18.7°C 76% Calm Calm 1.0 mph1.6 kmh 30.09 in1019.0 mb 0.00 in0.0 mm 0.00 in0.0 mm 0.00 in0.0 mm
02:10 AM 73.5°F23.1°C 65.6°F18.7°C 76% Calm Calm 1.0 mph1.6 kmh 30.09 in1019.0 mb 0.00 in0.0 mm 0.00 in0.0 mm 0.00 in0.0 mm
02:15 AM 73.3°F22.9°C 65.4°F18.6°C 76% Calm Calm 1.0 mph1.6 kmh 30.09 in1019.0 mb 0.00 in0.0 mm 0.00 in0.0 mm 0.00 in0.0 mm
02:20 AM 73.0°F22.8°C 65.5°F18.6°C 77% Calm Calm 1.0 mph1.6 kmh 30.09 in1019.0 mb 0.00 in0.0 mm 0.00 in0.0 mm 0.00 in0.0 mm
02:25 AM 73.0°F22.8°C 65.1°F18.4°C 76% 1.0 mph SE1.6 kmh SE 1.0 mph1.6 kmh 30.09 in1019.0 mb 0.00 in0.0 mm 0.00 in0.0 mm 0.00 in0.0 mm
02:30 AM 73.2°F22.9°C 65.3°F18.5°C 76% Calm Calm 1.0 mph1.6 kmh 30.09 in1019.0 mb 0.00 in0.0 mm 0.00 in0.0 mm 0.00 in0.0 mm
02:35 AM 73.1°F22.8°C 65.6°F18.7°C 77% Calm Calm 1.0 mph1.6 kmh 30.08 in1018.6 mb 0.00 in0.0 mm 0.00 in0.0 mm 0.00 in0.0 mm
02:40 AM 72.8°F22.7°C 65.2°F18.4°C 77% Calm Calm 1.0 mph1.6 kmh 30.08 in1018.6 mb 0.00 in0.0 mm 0.00 in0.0 mm 0.00 in0.0 mm
02:45 AM 72.8°F22.7°C 65.2°F18.4°C 77% Calm Calm -- 30.08 in1018.6 mb 0.00 in0.0 mm 0.00 in0.0 mm 0.00 in0.0 mm
02:50 AM 72.8°F22.7°C 65.2°F18.4°C 77% Calm Calm -- 30.08 in1018.6 mb 0.00 in0.0 mm 0.00 in0.0 mm 0.00 in0.0 mm
02:55 AM 72.9°F22.7°C 65.3°F18.5°C 77% 1.0 mph SE1.6 kmh SE 1.0 mph1.6 kmh 30.08 in1018.6 mb 0.00 in0.0 mm 0.00 in0.0 mm 0.00 in0.0 mm
03:00 AM 73.4°F23.0°C 65.5°F18.6°C 76% Calm Calm 1.0 mph1.6 kmh 30.08 in1018.6 mb 0.00 in0.0 mm 0.00 in0.0 mm 0.00 in0.0 mm
03:05 AM 73.5°F23.1°C 65.6°F18.7°C 76% Calm Calm 1.0 mph1.6 kmh 30.08 in1018.6 mb 0.00 in0.0 mm 0.00 in0.0 mm 0.00 in0.0 mm
03:10 AM 73.4°F23.0°C 65.5°F18.6°C 76% Calm Calm 1.0 mph1.6 kmh 30.08 in1018.6 mb 0.00 in0.0 mm 0.00 in0.0 mm 0.00 in0.0 mm
03:15 AM 73.1°F22.8°C 65.9°F18.8°C 78% Calm Calm -- 30.08 in1018.6 mb 0.00 in0.0 mm 0.00 in0.0 mm 0.00 in0.0 mm
03:20 AM 72.7°F22.6°C 65.9°F18.8°C 79% Calm Calm -- 30.08 in1018.6 mb 0.00 in0.0 mm 0.00 in0.0 mm 0.00 in0.0 mm
03:25 AM 72.4°F22.4°C 65.6°F18.7°C 79% Calm Calm -- 30.08 in1018.6 mb 0.00 in0.0 mm 0.00 in0.0 mm 0.00 in0.0 mm
03:30 AM 72.2°F22.3°C 65.8°F18.8°C 80% Calm Calm -- 30.08 in1018.6 mb 0.00 in0.0 mm 0.00 in0.0 mm 0.00 in0.0 mm
03:35 AM 72.1°F22.3°C 65.7°F18.7°C 80% Calm Calm -- 30.08 in1018.6 mb 0.00 in0.0 mm 0.00 in0.0 mm 0.00 in0.0 mm
03:40 AM 72.1°F22.3°C 65.7°F18.7°C 80% Calm Calm -- 30.08 in1018.6 mb 0.00 in0.0 mm 0.00 in0.0 mm 0.00 in0.0 mm
03:45 AM 72.1°F22.3°C 65.7°F18.7°C 80% Calm Calm -- 30.08 in1018.6 mb 0.00 in0.0 mm 0.00 in0.0 mm 0.00 in0.0 mm
03:50 AM 72.2°F22.3°C 66.1°F18.9°C 81% Calm Calm 1.0 mph1.6 kmh 30.08 in1018.6 mb 0.00 in0.0 mm 0.00 in0.0 mm 0.00 in0.0 mm
03:55 AM 72.0°F22.2°C 65.9°F18.8°C 81% Calm Calm 1.0 mph1.6 kmh 30.08 in1018.6 mb 0.00 in0.0 mm 0.00 in0.0 mm 0.00 in0.0 mm
04:00 AM 71.8°F22.1°C 66.1°F18.9°C 82% Calm Calm 1.0 mph1.6 kmh 30.08 in1018.6 mb 0.00 in0.0 mm 0.00 in0.0 mm 0.00 in0.0 mm
04:05 AM 71.7°F22.1°C 66.3°F19.1°C 83% Calm Calm 1.0 mph1.6 kmh 30.08 in1018.6 mb 0.00 in0.0 mm 0.00 in0.0 mm 0.00 in0.0 mm
04:10 AM 71.7°F22.1°C 66.3°F19.1°C 83% Calm Calm -- 30.08 in1018.6 mb 0.00 in0.0 mm 0.00 in0.0 mm 0.00 in0.0 mm
04:15 AM 71.7°F22.1°C 66.3°F19.1°C 83% Calm Calm -- 30.08 in1018.6 mb 0.00 in0.0 mm 0.00 in0.0 mm 0.00 in0.0 mm
04:20 AM 71.7°F22.1°C 66.0°F18.9°C 82% Calm Calm 1.0 mph1.6 kmh 30.08 in1018.6 mb 0.00 in0.0 mm 0.00 in0.0 mm 0.00 in0.0 mm
04:25 AM 71.5°F21.9°C 65.4°F18.6°C 81% Calm Calm 1.0 mph1.6 kmh 30.08 in1018.6 mb 0.00 in0.0 mm 0.00 in0.0 mm 0.00 in0.0 mm
04:30 AM 71.3°F21.8°C 65.2°F18.4°C 81% Calm Calm 1.0 mph1.6 kmh 30.08 in1018.6 mb 0.00 in0.0 mm 0.00 in0.0 mm 0.00 in0.0 mm
04:35 AM 71.1°F21.7°C 65.0°F18.3°C 81% Calm Calm 1.0 mph1.6 kmh 30.08 in1018.6 mb 0.00 in0.0 mm 0.00 in0.0 mm 0.00 in0.0 mm
04:40 AM 71.0°F21.7°C 64.9°F18.3°C 81% 1.4 mph SSE2.3 kmh SSE 2.0 mph3.2 kmh 30.08 in1018.6 mb 0.00 in0.0 mm 0.00 in0.0 mm 0.00 in0.0 mm
04:45 AM 71.0°F21.7°C 64.9°F18.3°C 81% 1.0 mph SW1.6 kmh SW 2.0 mph3.2 kmh 30.08 in1018.6 mb 0.00 in0.0 mm 0.00 in0.0 mm 0.00 in0.0 mm
04:50 AM 71.0°F21.7°C 64.9°F18.3°C 81% Calm Calm 2.0 mph3.2 kmh 30.08 in1018.6 mb 0.00 in0.0 mm 0.00 in0.0 mm 0.00 in0.0 mm
04:55 AM 71.0°F21.7°C 64.9°F18.3°C 81% Calm Calm 2.0 mph3.2 kmh 30.08 in1018.6 mb 0.00 in0.0 mm 0.00 in0.0 mm 0.00 in0.0 mm
05:00 AM 70.9°F21.6°C 64.5°F18.1°C 80% 1.0 mph SW1.6 kmh SW 2.0 mph3.2 kmh 30.08 in1018.6 mb 0.00 in0.0 mm 0.00 in0.0 mm 0.00 in0.0 mm
05:05 AM 71.0°F21.7°C 64.6°F18.1°C 80% 1.0 mph SW1.6 kmh SW 2.0 mph3.2 kmh 30.08 in1018.6 mb 0.00 in0.0 mm 0.00 in0.0 mm 0.00 in0.0 mm
05:10 AM 71.1°F21.7°C 64.7°F18.2°C 80% 1.0 mph SW1.6 kmh SW 3.0 mph4.8 kmh 30.08 in1018.6 mb 0.00 in0.0 mm 0.00 in0.0 mm 0.00 in0.0 mm
05:15 AM 71.0°F21.7°C 64.6°F18.1°C 80% 1.1 mph SW1.8 kmh SW 3.0 mph4.8 kmh 30.08 in1018.6 mb 0.00 in0.0 mm 0.00 in0.0 mm 0.00 in0.0 mm
05:20 AM 70.9°F21.6°C 64.9°F18.3°C 81% 1.2 mph SW1.9 kmh SW 3.0 mph4.8 kmh 30.08 in1018.6 mb 0.00 in0.0 mm 0.00 in0.0 mm 0.00 in0.0 mm
05:25 AM 70.8°F21.6°C 64.8°F18.2°C 81% 1.5 mph SW2.4 kmh SW 3.0 mph4.8 kmh 30.08 in1018.6 mb 0.00 in0.0 mm 0.00 in0.0 mm 0.00 in0.0 mm
05:30 AM 70.9°F21.6°C 64.8°F18.2°C 81% 1.6 mph SW2.6 kmh SW 3.0 mph4.8 kmh 30.08 in1018.6 mb 0.00 in0.0 mm 0.00 in0.0 mm 0.00 in0.0 mm
05:35 AM 70.9°F21.6°C 64.8°F18.2°C 81% 2.0 mph SW3.2 kmh SW 5.0 mph8.0 kmh 30.08 in1018.6 mb 0.00 in0.0 mm 0.00 in0.0 mm 0.00 in0.0 mm
05:40 AM 70.9°F21.6°C 64.8°F18.2°C 81% 1.4 mph SW2.3 kmh SW 5.0 mph8.0 kmh 30.08 in1018.6 mb 0.00 in0.0 mm 0.00 in0.0 mm 0.00 in0.0 mm
05:45 AM 71.0°F21.7°C 64.5°F18.1°C 80% 1.6 mph SW2.6 kmh SW 5.0 mph8.0 kmh 30.08 in1018.6 mb 0.00 in0.0 mm 0.00 in0.0 mm 0.00 in0.0 mm
05:50 AM 70.9°F21.6°C 64.9°F18.3°C 81% 1.4 mph SW2.3 kmh SW 5.0 mph8.0 kmh 30.08 in1018.6 mb 0.00 in0.0 mm 0.00 in0.0 mm 0.00 in0.0 mm
05:55 AM 70.9°F21.6°C 64.5°F18.1°C 80% 1.6 mph SW2.6 kmh SW 4.0 mph6.4 kmh 30.08 in1018.6 mb 0.00 in0.0 mm 0.00 in0.0 mm 0.00 in0.0 mm
06:00 AM 70.8°F21.6°C 64.8°F18.2°C 81% 1.6 mph SW2.6 kmh SW 4.0 mph6.4 kmh 30.08 in1018.6 mb 0.00 in0.0 mm 0.00 in0.0 mm 0.00 in0.0 mm
06:05 AM 70.7°F21.5°C 64.3°F17.9°C 80% 1.6 mph SW2.6 kmh SW 4.0 mph6.4 kmh 30.08 in1018.6 mb 0.00 in0.0 mm 0.00 in0.0 mm 0.00 in0.0 mm
06:10 AM 70.8°F21.6°C 64.4°F18.0°C 80% 1.6 mph WSW2.6 kmh WSW 4.0 mph6.4 kmh 30.08 in1018.6 mb 0.00 in0.0 mm 0.00 in0.0 mm 0.00 in0.0 mm
06:15 AM 70.9°F21.6°C 64.5°F18.1°C 80% 1.6 mph SW2.6 kmh SW 4.0 mph6.4 kmh 30.08 in1018.6 mb 0.00 in0.0 mm 0.00 in0.0 mm 0.00 in0.0 mm
06:19 AM 71.0°F21.7°C 64.6°F18.1°C 80% 1.6 mph SW2.6 kmh SW 4.0 mph6.4 kmh 30.08 in1018.6 mb 0.00 in0.0 mm 0.00 in0.0 mm 0.00 in0.0 mm
06:24 AM 71.2°F21.8°C 64.4°F18.0°C 79% 2.7 mph SW4.3 kmh SW 6.0 mph9.7 kmh 30.08 in1018.6 mb 0.00 in0.0 mm 0.00 in0.0 mm 0.00 in0.0 mm
06:29 AM 71.6°F22.0°C 64.4°F18.0°C 78% 1.7 mph SW2.7 kmh SW 6.0 mph9.7 kmh 30.08 in1018.6 mb 0.00 in0.0 mm 0.00 in0.0 mm 0.00 in0.0 mm
06:34 AM 71.9°F22.2°C 64.7°F18.2°C 78% 1.8 mph SSW2.9 kmh SSW 6.0 mph9.7 kmh 30.09 in1019.0 mb 0.00 in0.0 mm 0.00 in0.0 mm 0.00 in0.0 mm
06:39 AM 72.1°F22.3°C 64.5°F18.1°C 77% 1.7 mph WSW2.7 kmh WSW 6.0 mph9.7 kmh 30.09 in1019.0 mb 0.00 in0.0 mm 0.00 in0.0 mm 0.00 in0.0 mm
06:44 AM 72.3°F22.4°C 64.7°F18.2°C 77% 2.6 mph SW4.2 kmh SW 6.0 mph9.7 kmh 30.08 in1018.6 mb 0.00 in0.0 mm 0.00 in0.0 mm 0.00 in0.0 mm
06:49 AM 72.5°F22.5°C 65.0°F18.3°C 77% 1.7 mph SW2.7 kmh SW 6.0 mph9.7 kmh 30.09 in1019.0 mb 0.00 in0.0 mm 0.00 in0.0 mm 0.00 in0.0 mm
06:54 AM 72.7°F22.6°C 64.8°F18.2°C 76% 2.8 mph WSW4.5 kmh WSW 8.0 mph12.9 kmh 30.09 in1019.0 mb 0.00 in0.0 mm 0.00 in0.0 mm 0.00 in0.0 mm
06:59 AM 72.9°F22.7°C 65.0°F18.3°C 76% 2.3 mph SW3.7 kmh SW 8.0 mph12.9 kmh 30.09 in1019.0 mb 0.00 in0.0 mm 0.00 in0.0 mm 0.00 in0.0 mm
07:04 AM 73.1°F22.8°C 65.2°F18.4°C 76% 1.6 mph SW2.6 kmh SW 8.0 mph12.9 kmh 30.09 in1019.0 mb 0.00 in0.0 mm 0.00 in0.0 mm 0.00 in0.0 mm
07:09 AM 73.2°F22.9°C 65.3°F18.5°C 76% 2.9 mph SW4.7 kmh SW 8.0 mph12.9 kmh 30.09 in1019.0 mb 0.00 in0.0 mm 0.00 in0.0 mm 0.00 in0.0 mm
07:14 AM 73.4°F23.0°C 65.5°F18.6°C 76% 1.3 mph SW2.1 kmh SW 5.0 mph8.0 kmh 30.09 in1019.0 mb 0.00 in0.0 mm 0.00 in0.0 mm 0.00 in0.0 mm
07:19 AM 73.7°F23.2°C 65.8°F18.8°C 76% 1.2 mph SW1.9 kmh SW 5.0 mph8.0 kmh 30.09 in1019.0 mb 0.00 in0.0 mm 0.00 in0.0 mm 0.00 in0.0 mm
07:24 AM 73.9°F23.3°C 65.6°F18.7°C 75% 1.8 mph WSW2.9 kmh WSW 5.0 mph8.0 kmh 30.09 in1019.0 mb 0.00 in0.0 mm 0.00 in0.0 mm 0.00 in0.0 mm
07:29 AM 74.2°F23.4°C 65.9°F18.8°C 75% 1.6 mph SW2.6 kmh SW 4.0 mph6.4 kmh 30.09 in1019.0 mb 0.00 in0.0 mm 0.00 in0.0 mm 0.00 in0.0 mm
07:34 AM 74.5°F23.6°C 66.2°F19.0°C 75% 2.0 mph SW3.2 kmh SW 5.0 mph8.0 kmh 30.10 in1019.3 mb 0.00 in0.0 mm 0.00 in0.0 mm 0.00 in0.0 mm
07:39 AM 74.8°F23.8°C 66.1°F18.9°C 74% 2.8 mph SW4.5 kmh SW 5.0 mph8.0 kmh 30.10 in1019.3 mb 0.00 in0.0 mm 0.00 in0.0 mm 0.00 in0.0 mm
07:44 AM 75.2°F24.0°C 66.5°F19.2°C 74% 1.8 mph WSW2.9 kmh WSW 5.0 mph8.0 kmh 30.10 in1019.3 mb 0.00 in0.0 mm 0.00 in0.0 mm 0.00 in0.0 mm
07:49 AM 75.6°F24.2°C 66.7°F19.3°C 74% 1.3 mph SW2.1 kmh SW 5.0 mph8.0 kmh 30.10 in1019.3 mb 0.00 in0.0 mm 0.00 in0.0 mm 0.00 in0.0 mm
07:54 AM 76.0°F24.4°C 67.1°F19.5°C 74% 1.5 mph WSW2.4 kmh WSW 5.0 mph8.0 kmh 30.10 in1019.3 mb 0.00 in0.0 mm 0.00 in0.0 mm 0.00 in0.0 mm
07:59 AM 76.3°F24.6°C 67.6°F19.8°C 74% 2.1 mph SW3.4 kmh SW 5.0 mph8.0 kmh 30.10 in1019.3 mb 0.00 in0.0 mm 0.00 in0.0 mm 0.00 in0.0 mm
08:04 AM 76.5°F24.7°C 67.4°F19.7°C 73% 3.0 mph WSW4.8 kmh WSW 6.0 mph9.7 kmh 30.10 in1019.3 mb 0.00 in0.0 mm 0.00 in0.0 mm 0.00 in0.0 mm
08:09 AM 76.7°F24.8°C 67.6°F19.8°C 73% 2.6 mph WSW4.2 kmh WSW 7.0 mph11.3 kmh 30.10 in1019.3 mb 0.00 in0.0 mm 0.00 in0.0 mm 0.00 in0.0 mm
08:14 AM 77.1°F25.1°C 67.6°F19.8°C 72% 2.3 mph WSW3.7 kmh WSW 8.0 mph12.9 kmh 30.10 in1019.3 mb 0.00 in0.0 mm 0.00 in0.0 mm 0.00 in0.0 mm
08:19 AM 77.6°F25.3°C 68.1°F20.1°C 72% 2.6 mph SW4.2 kmh SW 8.0 mph12.9 kmh 30.09 in1019.0 mb 0.00 in0.0 mm 0.00 in0.0 mm 0.00 in0.0 mm
08:24 AM 78.0°F25.6°C 68.0°F20.0°C 71% 2.9 mph WSW4.7 kmh WSW 8.0 mph12.9 kmh 30.09 in1019.0 mb 0.00 in0.0 mm 0.00 in0.0 mm 0.00 in0.0 mm
08:29 AM 78.3°F25.7°C 67.9°F19.9°C 70% 2.4 mph WSW3.9 kmh WSW 8.0 mph12.9 kmh 30.09 in1019.0 mb 0.00 in0.0 mm 0.00 in0.0 mm 0.00 in0.0 mm
08:34 AM 78.8°F26.0°C 68.2°F20.1°C 70% 2.3 mph SW3.7 kmh SW 6.0 mph9.7 kmh 30.09 in1019.0 mb 0.00 in0.0 mm 0.00 in0.0 mm 0.00 in0.0 mm
08:39 AM 79.3°F26.3°C 68.2°F20.1°C 69% 2.1 mph WSW3.4 kmh WSW 6.0 mph9.7 kmh 30.09 in1019.0 mb 0.00 in0.0 mm 0.00 in0.0 mm 0.00 in0.0 mm
08:44 AM 79.6°F26.4°C 68.3°F20.2°C 68% 2.0 mph W3.2 kmh W 6.0 mph9.7 kmh 30.09 in1019.0 mb 0.00 in0.0 mm 0.00 in0.0 mm 0.00 in0.0 mm
08:49 AM 79.9°F26.6°C 68.2°F20.1°C 67% 1.8 mph WNW2.9 kmh WNW 7.0 mph11.3 kmh 30.09 in1019.0 mb 0.00 in0.0 mm 0.00 in0.0 mm 0.00 in0.0 mm
08:54 AM 80.4°F26.9°C 68.7°F20.4°C 67% 2.8 mph WSW4.5 kmh WSW 7.0 mph11.3 kmh 30.09 in1019.0 mb 0.00 in0.0 mm 0.00 in0.0 mm 0.00 in0.0 mm
08:59 AM 80.4°F26.9°C 67.8°F19.9°C 65% 2.5 mph WSW4.0 kmh WSW 7.0 mph11.3 kmh 30.09 in1019.0 mb 0.00 in0.0 mm 0.00 in0.0 mm 0.00 in0.0 mm
09:04 AM 80.9°F27.2°C 68.3°F20.2°C 65% 1.5 mph WSW2.4 kmh WSW 7.0 mph11.3 kmh 30.09 in1019.0 mb 0.00 in0.0 mm 0.00 in0.0 mm 0.00 in0.0 mm
09:09 AM 81.5°F27.5°C 68.9°F20.5°C 65% 2.1 mph WNW3.4 kmh WNW 6.0 mph9.7 kmh 30.09 in1019.0 mb 0.00 in0.0 mm 0.00 in0.0 mm 0.00 in0.0 mm
09:14 AM 81.4°F27.4°C 67.8°F19.9°C 63% 1.9 mph WNW3.1 kmh WNW 6.0 mph9.7 kmh 30.09 in1019.0 mb 0.00 in0.0 mm 0.00 in0.0 mm 0.00 in0.0 mm
09:19 AM 81.5°F27.5°C 67.9°F19.9°C 63% 1.3 mph WNW2.1 kmh WNW 6.0 mph9.7 kmh 30.09 in1019.0 mb 0.00 in0.0 mm 0.00 in0.0 mm 0.00 in0.0 mm
09:24 AM 82.3°F27.9°C 69.2°F20.7°C 64% 1.0 mph W1.6 kmh W 6.0 mph9.7 kmh 30.09 in1019.0 mb 0.00 in0.0 mm 0.00 in0.0 mm 0.00 in0.0 mm
09:29 AM 82.3°F27.9°C 67.0°F19.4°C 60% 2.2 mph W3.5 kmh W 6.0 mph9.7 kmh 30.09 in1019.0 mb 0.00 in0.0 mm 0.00 in0.0 mm 0.00 in0.0 mm
09:34 AM 82.2°F27.9°C 68.1°F20.1°C 62% 2.8 mph WSW4.5 kmh WSW 5.0 mph8.0 kmh 30.10 in1019.3 mb 0.00 in0.0 mm 0.00 in0.0 mm 0.00 in0.0 mm
09:39 AM 82.5°F28.1°C 68.4°F20.2°C 62% 1.9 mph WNW3.1 kmh WNW 5.0 mph8.0 kmh 30.09 in1019.0 mb 0.00 in0.0 mm 0.00 in0.0 mm 0.00 in0.0 mm
09:44 AM 82.8°F28.2°C 68.7°F20.4°C 62% 1.2 mph WSW1.9 kmh WSW 5.0 mph8.0 kmh 30.09 in1019.0 mb 0.00 in0.0 mm 0.00 in0.0 mm 0.00 in0.0 mm
09:49 AM 83.4°F28.6°C 68.5°F20.3°C 61% 1.0 mph SW1.6 kmh SW 5.0 mph8.0 kmh 30.10 in1019.3 mb 0.00 in0.0 mm 0.00 in0.0 mm 0.00 in0.0 mm
09:54 AM 84.2°F29.0°C 68.6°F20.3°C 59% 2.0 mph SW3.2 kmh SW 4.0 mph6.4 kmh 30.10 in1019.3 mb 0.00 in0.0 mm 0.00 in0.0 mm 0.00 in0.0 mm
09:59 AM 84.5°F29.2°C 68.3°F20.2°C 58% 1.3 mph NW2.1 kmh NW 3.0 mph4.8 kmh 30.10 in1019.3 mb 0.00 in0.0 mm 0.00 in0.0 mm 0.00 in0.0 mm
10:04 AM 84.6°F29.2°C 67.9°F19.9°C 57% 1.0 mph SW1.6 kmh SW 5.0 mph8.0 kmh 30.10 in1019.3 mb 0.00 in0.0 mm 0.00 in0.0 mm 0.00 in0.0 mm
10:09 AM 84.9°F29.4°C 68.7°F20.4°C 58% 1.4 mph SW2.3 kmh SW 5.0 mph8.0 kmh 30.10 in1019.3 mb 0.00 in0.0 mm 0.00 in0.0 mm 0.00 in0.0 mm
10:14 AM 84.9°F29.4°C 68.2°F20.1°C 57% 1.0 mph SW1.6 kmh SW 5.0 mph8.0 kmh 30.10 in1019.3 mb 0.00 in0.0 mm 0.00 in0.0 mm 0.00 in0.0 mm
10:19 AM 85.7°F29.8°C 67.9°F19.9°C 55% 1.3 mph W2.1 kmh W 5.0 mph8.0 kmh 30.10 in1019.3 mb 0.00 in0.0 mm 0.00 in0.0 mm 0.00 in0.0 mm
10:24 AM 85.8°F29.9°C 68.0°F20.0°C 55% 1.0 mph W1.6 kmh W 4.0 mph6.4 kmh 30.10 in1019.3 mb 0.00 in0.0 mm 0.00 in0.0 mm 0.00 in0.0 mm
10:29 AM 86.1°F30.1°C 68.3°F20.2°C 55% 1.0 mph NE1.6 kmh NE 3.0 mph4.8 kmh 30.10 in1019.3 mb 0.00 in0.0 mm 0.00 in0.0 mm 0.00 in0.0 mm
10:34 AM 86.1°F30.1°C 66.6°F19.2°C 52% 2.1 mph NE3.4 kmh NE 4.0 mph6.4 kmh 30.10 in1019.3 mb 0.00 in0.0 mm 0.00 in0.0 mm 0.00 in0.0 mm
10:39 AM 86.4°F30.2°C 67.8°F19.9°C 54% 1.6 mph SW2.6 kmh SW 4.0 mph6.4 kmh 30.09 in1019.0 mb 0.00 in0.0 mm 0.00 in0.0 mm 0.00 in0.0 mm
10:44 AM 86.8°F30.4°C 67.8°F19.9°C 53% 1.6 mph SE2.6 kmh SE 4.0 mph6.4 kmh 30.09 in1019.0 mb 0.00 in0.0 mm 0.00 in0.0 mm 0.00 in0.0 mm
10:49 AM 86.9°F30.5°C 67.3°F19.6°C 52% 1.8 mph SSW2.9 kmh SSW 4.0 mph6.4 kmh 30.09 in1019.0 mb 0.00 in0.0 mm 0.00 in0.0 mm 0.00 in0.0 mm
10:54 AM 87.2°F30.7°C 68.0°F20.0°C 53% 2.8 mph SW4.5 kmh SW 6.0 mph9.7 kmh 30.10 in1019.3 mb 0.00 in0.0 mm 0.00 in0.0 mm 0.00 in0.0 mm
10:59 AM 87.3°F30.7°C 67.7°F19.8°C 52% 1.0 mph SW1.6 kmh SW 6.0 mph9.7 kmh 30.10 in1019.3 mb 0.00 in0.0 mm 0.00 in0.0 mm 0.00 in0.0 mm
11:04 AM 87.6°F30.9°C 66.2°F19.0°C 49% 2.4 mph SW3.9 kmh SW 6.0 mph9.7 kmh 30.09 in1019.0 mb 0.00 in0.0 mm 0.00 in0.0 mm 0.00 in0.0 mm
11:09 AM 87.7°F30.9°C 65.7°F18.7°C 48% 2.8 mph S4.5 kmh S 6.0 mph9.7 kmh 30.09 in1019.0 mb 0.00 in0.0 mm 0.00 in0.0 mm 0.00 in0.0 mm
11:14 AM 88.0°F31.1°C 66.4°F19.1°C 49% 1.5 mph SW2.4 kmh SW 5.0 mph8.0 kmh 30.09 in1019.0 mb 0.00 in0.0 mm 0.00 in0.0 mm 0.00 in0.0 mm
11:18 AM 88.7°F31.5°C 65.4°F18.6°C 46% 1.0 mph SW1.6 kmh SW 5.0 mph8.0 kmh 30.09 in1019.0 mb 0.00 in0.0 mm 0.00 in0.0 mm 0.00 in0.0 mm
11:23 AM 88.9°F31.6°C 64.2°F17.9°C 44% 1.9 mph SW3.1 kmh SW 5.0 mph8.0 kmh 30.09 in1019.0 mb 0.00 in0.0 mm 0.00 in0.0 mm 0.00 in0.0 mm
11:28 AM 88.7°F31.5°C 66.0°F18.9°C 47% 2.3 mph ESE3.7 kmh ESE 4.0 mph6.4 kmh 30.09 in1019.0 mb 0.00 in0.0 mm 0.00 in0.0 mm 0.00 in0.0 mm
11:33 AM 88.6°F31.4°C 65.3°F18.5°C 46% 2.6 mph ENE4.2 kmh ENE 4.0 mph6.4 kmh 30.09 in1019.0 mb 0.00 in0.0 mm 0.00 in0.0 mm 0.00 in0.0 mm
11:38 AM 88.7°F31.5°C 64.7°F18.2°C 45% 1.0 mph N1.6 kmh N 4.0 mph6.4 kmh 30.09 in1019.0 mb 0.00 in0.0 mm 0.00 in0.0 mm 0.00 in0.0 mm
11:43 AM 88.9°F31.6°C 66.2°F19.0°C 47% 2.0 mph E3.2 kmh E 4.0 mph6.4 kmh 30.09 in1019.0 mb 0.00 in0.0 mm 0.00 in0.0 mm 0.00 in0.0 mm
11:48 AM 88.1°F31.2°C 64.8°F18.2°C 46% 3.1 mph ESE5.0 kmh ESE 5.0 mph8.0 kmh 30.09 in1019.0 mb 0.00 in0.0 mm 0.00 in0.0 mm 0.00 in0.0 mm
11:53 AM 87.5°F30.8°C 64.2°F17.9°C 46% 1.0 mph ESE1.6 kmh ESE 6.0 mph9.7 kmh 30.08 in1018.6 mb 0.00 in0.0 mm 0.00 in0.0 mm 0.00 in0.0 mm
11:58 AM 87.8°F31.0°C 62.5°F16.9°C 43% 1.9 mph SE3.1 kmh SE 6.0 mph9.7 kmh 30.08 in1018.6 mb 0.00 in0.0 mm 0.00 in0.0 mm 0.00 in0.0 mm
12:03 PM 87.9°F31.1°C 62.6°F17.0°C 43% 1.4 mph ESE2.3 kmh ESE 6.0 mph9.7 kmh 30.08 in1018.6 mb 0.00 in0.0 mm 0.00 in0.0 mm 0.00 in0.0 mm
12:08 PM 88.6°F31.4°C 63.9°F17.7°C 44% Calm Calm 6.0 mph9.7 kmh 30.08 in1018.6 mb 0.00 in0.0 mm 0.00 in0.0 mm 0.00 in0.0 mm
12:13 PM 89.3°F31.8°C 61.8°F16.6°C 40% 2.6 mph SE4.2 kmh SE 4.0 mph6.4 kmh 30.08 in1018.6 mb 0.00 in0.0 mm 0.00 in0.0 mm 0.00 in0.0 mm
12:18 PM 89.3°F31.8°C 60.3°F15.7°C 38% 2.2 mph ESE3.5 kmh ESE 4.0 mph6.4 kmh 30.08 in1018.6 mb 0.00 in0.0 mm 0.00 in0.0 mm 0.00 in0.0 mm
12:23 PM 89.4°F31.9°C 61.9°F16.6°C 40% 3.3 mph NE5.3 kmh NE 6.0 mph9.7 kmh 30.07 in1018.3 mb 0.00 in0.0 mm 0.00 in0.0 mm 0.00 in0.0 mm
12:28 PM 89.7°F32.1°C 62.1°F16.7°C 40% 1.7 mph NNE2.7 kmh NNE 6.0 mph9.7 kmh 30.07 in1018.3 mb 0.00 in0.0 mm 0.00 in0.0 mm 0.00 in0.0 mm
12:33 PM 90.0°F32.2°C 62.4°F16.9°C 40% 1.3 mph S2.1 kmh S 6.0 mph9.7 kmh 30.07 in1018.3 mb 0.00 in0.0 mm 0.00 in0.0 mm 0.00 in0.0 mm
12:38 PM 89.9°F32.2°C 63.8°F17.7°C 42% Calm Calm 6.0 mph9.7 kmh 30.07 in1018.3 mb 0.00 in0.0 mm 0.00 in0.0 mm 0.00 in0.0 mm
12:43 PM 88.4°F31.3°C 65.1°F18.4°C 46% 3.7 mph W6.0 kmh W 7.0 mph11.3 kmh 30.07 in1018.3 mb 0.00 in0.0 mm 0.00 in0.0 mm 0.00 in0.0 mm
12:48 PM 87.5°F30.8°C 66.0°F18.9°C 49% 4.2 mph WNW6.8 kmh WNW 7.0 mph11.3 kmh 30.07 in1018.3 mb 0.00 in0.0 mm 0.00 in0.0 mm 0.00 in0.0 mm
12:53 PM 86.4°F30.2°C 64.5°F18.1°C 48% 4.2 mph WNW6.8 kmh WNW 10.0 mph16.1 kmh 30.07 in1018.3 mb 0.00 in0.0 mm 0.00 in0.0 mm 0.00 in0.0 mm
12:58 PM 85.8°F29.9°C 65.2°F18.4°C 50% 1.7 mph W2.7 kmh W 10.0 mph16.1 kmh 30.07 in1018.3 mb 0.00 in0.0 mm 0.00 in0.0 mm 0.00 in0.0 mm
01:03 PM 85.6°F29.8°C 65.6°F18.7°C 51% 1.9 mph NW3.1 kmh NW 10.0 mph16.1 kmh 30.07 in1018.3 mb 0.00 in0.0 mm 0.00 in0.0 mm 0.00 in0.0 mm
01:08 PM 85.2°F29.6°C 65.2°F18.4°C 51% 3.6 mph WNW5.8 kmh WNW 10.0 mph16.1 kmh 30.07 in1018.3 mb 0.00 in0.0 mm 0.00 in0.0 mm 0.00 in0.0 mm
01:13 PM 85.1°F29.5°C 65.7°F18.7°C 52% 3.8 mph W6.1 kmh W 8.0 mph12.9 kmh 30.07 in1018.3 mb 0.00 in0.0 mm 0.00 in0.0 mm 0.00 in0.0 mm
01:18 PM 85.1°F29.5°C 65.5°F18.6°C 52% 3.0 mph WNW4.8 kmh WNW 8.0 mph12.9 kmh 30.07 in1018.3 mb 0.00 in0.0 mm 0.00 in0.0 mm 0.00 in0.0 mm
01:23 PM 85.2°F29.6°C 65.8°F18.8°C 52% 2.9 mph WSW4.7 kmh WSW 8.0 mph12.9 kmh 30.07 in1018.3 mb 0.00 in0.0 mm 0.00 in0.0 mm 0.00 in0.0 mm
01:28 PM 85.0°F29.4°C 65.6°F18.7°C 52% 3.1 mph W5.0 kmh W 8.0 mph12.9 kmh 30.07 in1018.3 mb 0.00 in0.0 mm 0.00 in0.0 mm 0.00 in0.0 mm
01:33 PM 85.2°F29.6°C 65.8°F18.8°C 52% 1.8 mph W2.9 kmh W 7.0 mph11.3 kmh 30.06 in1017.9 mb 0.00 in0.0 mm 0.00 in0.0 mm 0.00 in0.0 mm
01:38 PM 85.6°F29.8°C 66.1°F18.9°C 52% 2.6 mph WSW4.2 kmh WSW 7.0 mph11.3 kmh 30.06 in1017.9 mb 0.00 in0.0 mm 0.00 in0.0 mm 0.00 in0.0 mm
01:43 PM 86.0°F30.0°C 67.1°F19.5°C 53% 1.5 mph NW2.4 kmh NW 6.0 mph9.7 kmh 30.06 in1017.9 mb 0.00 in0.0 mm 0.00 in0.0 mm 0.00 in0.0 mm
01:48 PM 86.0°F30.0°C 65.2°F18.4°C 50% 2.5 mph WSW4.0 kmh WSW 6.0 mph9.7 kmh 30.06 in1017.9 mb 0.00 in0.0 mm 0.00 in0.0 mm 0.00 in0.0 mm
01:53 PM 86.5°F30.3°C 67.0°F19.4°C 52% 1.7 mph WSW2.7 kmh WSW 6.0 mph9.7 kmh 30.05 in1017.6 mb 0.00 in0.0 mm 0.00 in0.0 mm 0.00 in0.0 mm
01:58 PM 87.0°F30.6°C 66.3°F19.1°C 50% 1.2 mph ENE1.9 kmh ENE 6.0 mph9.7 kmh 30.05 in1017.6 mb 0.00 in0.0 mm 0.00 in0.0 mm 0.00 in0.0 mm
02:03 PM 87.8°F31.0°C 65.8°F18.8°C 48% 1.5 mph SW2.4 kmh SW 6.0 mph9.7 kmh 30.05 in1017.6 mb 0.00 in0.0 mm 0.00 in0.0 mm 0.00 in0.0 mm
02:08 PM 88.3°F31.3°C 64.3°F17.9°C 45% 1.4 mph NW2.3 kmh NW 5.0 mph8.0 kmh 30.04 in1017.3 mb 0.00 in0.0 mm 0.00 in0.0 mm 0.00 in0.0 mm
02:13 PM 88.6°F31.4°C 67.1°F19.5°C 49% 1.3 mph WSW2.1 kmh WSW 5.0 mph8.0 kmh 30.04 in1017.3 mb 0.00 in0.0 mm 0.00 in0.0 mm 0.00 in0.0 mm
02:18 PM 88.4°F31.3°C 63.1°F17.3°C 43% 2.8 mph SW4.5 kmh SW 8.0 mph12.9 kmh 30.04 in1017.3 mb 0.00 in0.0 mm 0.00 in0.0 mm 0.00 in0.0 mm
02:23 PM 88.9°F31.6°C 64.2°F17.9°C 44% 3.3 mph SW5.3 kmh SW 8.0 mph12.9 kmh 30.04 in1017.3 mb 0.00 in0.0 mm 0.00 in0.0 mm 0.00 in0.0 mm
02:28 PM 88.7°F31.5°C 64.7°F18.2°C 45% 2.5 mph WNW4.0 kmh WNW 8.0 mph12.9 kmh 30.03 in1016.9 mb 0.00 in0.0 mm 0.00 in0.0 mm 0.00 in0.0 mm
02:33 PM 88.6°F31.4°C 63.3°F17.4°C 43% 3.8 mph WSW6.1 kmh WSW 8.0 mph12.9 kmh 30.03 in1016.9 mb 0.00 in0.0 mm 0.00 in0.0 mm 0.00 in0.0 mm
02:38 PM 88.8°F31.6°C 63.5°F17.5°C 43% 2.2 mph W3.5 kmh W 8.0 mph12.9 kmh 30.03 in1016.9 mb 0.00 in0.0 mm 0.00 in0.0 mm 0.00 in0.0 mm
02:43 PM 88.6°F31.4°C 63.9°F17.7°C 44% 2.3 mph WSW3.7 kmh WSW 8.0 mph12.9 kmh 30.03 in1016.9 mb 0.00 in0.0 mm 0.00 in0.0 mm 0.00 in0.0 mm
02:48 PM 88.9°F31.6°C 64.2°F17.9°C 44% 2.4 mph SSW3.9 kmh SSW 7.0 mph11.3 kmh 30.03 in1016.9 mb 0.00 in0.0 mm 0.00 in0.0 mm 0.00 in0.0 mm
02:53 PM 89.0°F31.7°C 63.6°F17.6°C 43% 3.6 mph WSW5.8 kmh WSW 8.0 mph12.9 kmh 30.03 in1016.9 mb 0.00 in0.0 mm 0.00 in0.0 mm 0.00 in0.0 mm
02:58 PM 89.3°F31.8°C 63.9°F17.7°C 43% 2.6 mph SW4.2 kmh SW 8.0 mph12.9 kmh 30.03 in1016.9 mb 0.00 in0.0 mm 0.00 in0.0 mm 0.00 in0.0 mm
03:03 PM 89.9°F32.2°C 63.7°F17.6°C 42% 2.5 mph SW4.0 kmh SW 8.0 mph12.9 kmh 30.03 in1016.9 mb 0.00 in0.0 mm 0.00 in0.0 mm 0.00 in0.0 mm
03:08 PM 89.5°F31.9°C 62.7°F17.1°C 41% 3.1 mph SW5.0 kmh SW 8.0 mph12.9 kmh 30.03 in1016.9 mb 0.00 in0.0 mm 0.00 in0.0 mm 0.00 in0.0 mm
03:13 PM 89.0°F31.7°C 62.2°F16.8°C 41% 2.4 mph SW3.9 kmh SW 7.0 mph11.3 kmh 30.03 in1016.9 mb 0.00 in0.0 mm 0.00 in0.0 mm 0.00 in0.0 mm
03:18 PM 89.3°F31.8°C 62.5°F16.9°C 41% 1.0 mph W1.6 kmh W 7.0 mph11.3 kmh 30.03 in1016.9 mb 0.00 in0.0 mm 0.00 in0.0 mm 0.00 in0.0 mm
03:23 PM 89.5°F31.9°C 63.4°F17.4°C 42% 1.0 mph ENE1.6 kmh ENE 7.0 mph11.3 kmh 30.02 in1016.6 mb 0.00 in0.0 mm 0.00 in0.0 mm 0.00 in0.0 mm
03:28 PM 90.1°F32.3°C 63.9°F17.7°C 42% 1.9 mph SSW3.1 kmh SSW 5.0 mph8.0 kmh 30.02 in1016.6 mb 0.00 in0.0 mm 0.00 in0.0 mm 0.00 in0.0 mm
03:33 PM 90.4°F32.4°C 63.5°F17.5°C 41% 3.0 mph ESE4.8 kmh ESE 6.0 mph9.7 kmh 30.02 in1016.6 mb 0.00 in0.0 mm 0.00 in0.0 mm 0.00 in0.0 mm
03:38 PM 89.9°F32.2°C 63.8°F17.7°C 42% 1.0 mph ESE1.6 kmh ESE 6.0 mph9.7 kmh 30.01 in1016.3 mb 0.00 in0.0 mm 0.00 in0.0 mm 0.00 in0.0 mm
03:43 PM 90.8°F32.7°C 65.3°F18.5°C 43% 1.0 mph W1.6 kmh W 6.0 mph9.7 kmh 30.01 in1016.3 mb 0.00 in0.0 mm 0.00 in0.0 mm 0.00 in0.0 mm
03:48 PM 91.3°F32.9°C 62.9°F17.2°C 39% 1.3 mph SW2.1 kmh SW 6.0 mph9.7 kmh 30.01 in1016.3 mb 0.00 in0.0 mm 0.00 in0.0 mm 0.00 in0.0 mm
03:53 PM 91.2°F32.9°C 62.0°F16.7°C 38% 1.4 mph SSE2.3 kmh SSE 4.0 mph6.4 kmh 30.01 in1016.3 mb 0.00 in0.0 mm 0.00 in0.0 mm 0.00 in0.0 mm
03:58 PM 91.4°F33.0°C 62.2°F16.8°C 38% 1.0 mph WSW1.6 kmh WSW 4.0 mph6.4 kmh 30.01 in1016.3 mb 0.00 in0.0 mm 0.00 in0.0 mm 0.00 in0.0 mm
04:03 PM 91.1°F32.8°C 61.9°F16.6°C 38% 1.6 mph WSW2.6 kmh WSW 5.0 mph8.0 kmh 30.01 in1016.3 mb 0.00 in0.0 mm 0.00 in0.0 mm 0.00 in0.0 mm
04:08 PM 90.9°F32.7°C 62.5°F16.9°C 39% 1.7 mph SW2.7 kmh SW 5.0 mph8.0 kmh 30.00 in1015.9 mb 0.00 in0.0 mm 0.00 in0.0 mm 0.00 in0.0 mm
04:13 PM 91.1°F32.8°C 64.1°F17.8°C 41% 1.0 mph WSW1.6 kmh WSW 5.0 mph8.0 kmh 30.00 in1015.9 mb 0.00 in0.0 mm 0.00 in0.0 mm 0.00 in0.0 mm
04:17 PM 90.4°F32.4°C 64.2°F17.9°C 42% 2.0 mph SW3.2 kmh SW 5.0 mph8.0 kmh 30.00 in1015.9 mb 0.00 in0.0 mm 0.00 in0.0 mm 0.00 in0.0 mm
04:22 PM 89.3°F31.8°C 63.9°F17.7°C 43% 1.9 mph WSW3.1 kmh WSW 5.0 mph8.0 kmh 30.00 in1015.9 mb 0.00 in0.0 mm 0.00 in0.0 mm 0.00 in0.0 mm
04:27 PM 88.1°F31.2°C 66.1°F18.9°C 48% 3.3 mph WNW5.3 kmh WNW 10.0 mph16.1 kmh 30.00 in1015.9 mb 0.00 in0.0 mm 0.00 in0.0 mm 0.00 in0.0 mm
04:32 PM 88.0°F31.1°C 67.8°F19.9°C 51% 4.1 mph WNW6.6 kmh WNW 10.0 mph16.1 kmh 30.00 in1015.9 mb 0.00 in0.0 mm 0.00 in0.0 mm 0.00 in0.0 mm
04:37 PM 88.3°F31.3°C 67.5°F19.7°C 50% 3.6 mph WNW5.8 kmh WNW 10.0 mph16.1 kmh 30.00 in1015.9 mb 0.00 in0.0 mm 0.00 in0.0 mm 0.00 in0.0 mm
04:42 PM 88.2°F31.2°C 66.8°F19.3°C 49% 3.3 mph NW5.3 kmh NW 10.0 mph16.1 kmh 30.00 in1015.9 mb 0.00 in0.0 mm 0.00 in0.0 mm 0.00 in0.0 mm
04:47 PM 87.9°F31.1°C 67.1°F19.5°C 50% 3.3 mph WNW5.3 kmh WNW 9.0 mph14.5 kmh 30.00 in1015.9 mb 0.00 in0.0 mm 0.00 in0.0 mm 0.00 in0.0 mm
04:52 PM 87.5°F30.8°C 65.5°F18.6°C 48% 3.2 mph NW5.1 kmh NW 9.0 mph14.5 kmh 30.00 in1015.9 mb 0.00 in0.0 mm 0.00 in0.0 mm 0.00 in0.0 mm
04:58 PM 87.4°F30.8°C 66.6°F19.2°C 50% 1.8 mph NW2.9 kmh NW 9.0 mph14.5 kmh 30.00 in1015.9 mb 0.00 in0.0 mm 0.00 in0.0 mm 0.00 in0.0 mm
05:03 PM 87.3°F30.7°C 66.4°F19.1°C 50% 2.4 mph NW3.9 kmh NW 9.0 mph14.5 kmh 29.99 in1015.6 mb 0.00 in0.0 mm 0.00 in0.0 mm 0.00 in0.0 mm
05:07 PM 87.2°F30.7°C 65.9°F18.8°C 49% 4.5 mph NNW7.2 kmh NNW 9.0 mph14.5 kmh 29.99 in1015.6 mb 0.00 in0.0 mm 0.00 in0.0 mm 0.00 in0.0 mm
05:13 PM 87.0°F30.6°C 65.1°F18.4°C 48% 5.2 mph NW8.4 kmh NW 9.0 mph14.5 kmh 29.99 in1015.6 mb 0.00 in0.0 mm 0.00 in0.0 mm 0.00 in0.0 mm
05:17 PM 87.2°F30.7°C 65.7°F18.7°C 49% 2.1 mph W3.4 kmh W 9.0 mph14.5 kmh 29.99 in1015.6 mb 0.00 in0.0 mm 0.00 in0.0 mm 0.00 in0.0 mm
05:22 PM 87.2°F30.7°C 65.9°F18.8°C 49% 3.9 mph WNW6.3 kmh WNW 9.0 mph14.5 kmh 29.99 in1015.6 mb 0.00 in0.0 mm 0.00 in0.0 mm 0.00 in0.0 mm
05:28 PM 87.2°F30.7°C 65.2°F18.4°C 48% 4.3 mph NW6.9 kmh NW 10.0 mph16.1 kmh 29.99 in1015.6 mb 0.00 in0.0 mm 0.00 in0.0 mm 0.00 in0.0 mm
05:33 PM 86.6°F30.3°C 64.0°F17.8°C 47% 3.6 mph NW5.8 kmh NW 10.0 mph16.1 kmh 29.99 in1015.6 mb 0.00 in0.0 mm 0.00 in0.0 mm 0.00 in0.0 mm
05:38 PM 86.5°F30.3°C 64.0°F17.8°C 47% 3.0 mph WNW4.8 kmh WNW 10.0 mph16.1 kmh 29.98 in1015.2 mb 0.00 in0.0 mm 0.00 in0.0 mm 0.00 in0.0 mm
05:43 PM 86.6°F30.3°C 64.7°F18.2°C 48% 2.2 mph NW3.5 kmh NW 10.0 mph16.1 kmh 29.98 in1015.2 mb 0.00 in0.0 mm 0.00 in0.0 mm 0.00 in0.0 mm
05:48 PM 86.6°F30.3°C 64.7°F18.2°C 48% 1.7 mph W2.7 kmh W 10.0 mph16.1 kmh 29.98 in1015.2 mb 0.00 in0.0 mm 0.00 in0.0 mm 0.00 in0.0 mm
05:53 PM 86.7°F30.4°C 65.3°F18.5°C 49% 1.5 mph N2.4 kmh N 10.0 mph16.1 kmh 29.98 in1015.2 mb 0.00 in0.0 mm 0.00 in0.0 mm 0.00 in0.0 mm
05:58 PM 86.9°F30.5°C 65.0°F18.3°C 48% 1.4 mph NW2.3 kmh NW 6.0 mph9.7 kmh 29.98 in1015.2 mb 0.00 in0.0 mm 0.00 in0.0 mm 0.00 in0.0 mm
06:03 PM 86.9°F30.5°C 65.0°F18.3°C 48% 2.0 mph NW3.2 kmh NW 6.0 mph9.7 kmh 29.98 in1015.2 mb 0.00 in0.0 mm 0.00 in0.0 mm 0.00 in0.0 mm
06:08 PM 87.1°F30.6°C 65.6°F18.7°C 49% 1.4 mph 2.3 kmh 5.0 mph8.0 kmh 29.98 in1015.2 mb 0.00 in0.0 mm 0.00 in0.0 mm 0.00 in0.0 mm
06:13 PM 87.2°F30.7°C 65.9°F18.8°C 49% 1.4 mph WNW2.3 kmh WNW 7.0 mph11.3 kmh 29.98 in1015.2 mb 0.00 in0.0 mm 0.00 in0.0 mm 0.00 in0.0 mm
06:18 PM 87.3°F30.7°C 65.3°F18.5°C 48% 1.7 mph NW2.7 kmh NW 7.0 mph11.3 kmh 29.98 in1015.2 mb 0.00 in0.0 mm 0.00 in0.0 mm 0.00 in0.0 mm
06:23 PM 87.2°F30.7°C 65.1°F18.4°C 48% 1.8 mph NW2.9 kmh NW 7.0 mph11.3 kmh 29.98 in1015.2 mb 0.00 in0.0 mm 0.00 in0.0 mm 0.00 in0.0 mm
06:28 PM 87.2°F30.7°C 64.6°F18.1°C 47% 2.2 mph WNW3.5 kmh WNW 7.0 mph11.3 kmh 29.98 in1015.2 mb 0.00 in0.0 mm 0.00 in0.0 mm 0.00 in0.0 mm
06:33 PM 87.0°F30.6°C 65.7°F18.7°C 49% 1.6 mph NW2.6 kmh NW 4.0 mph6.4 kmh 29.99 in1015.6 mb 0.00 in0.0 mm 0.00 in0.0 mm 0.00 in0.0 mm
06:38 PM 86.8°F30.4°C 64.9°F18.3°C 48% 2.9 mph NW4.7 kmh NW 5.0 mph8.0 kmh 29.99 in1015.6 mb 0.00 in0.0 mm 0.00 in0.0 mm 0.00 in0.0 mm
06:43 PM 86.7°F30.4°C 64.7°F18.2°C 48% 2.7 mph WNW4.3 kmh WNW 5.0 mph8.0 kmh 29.99 in1015.6 mb 0.00 in0.0 mm 0.00 in0.0 mm 0.00 in0.0 mm
06:48 PM 86.6°F30.3°C 64.7°F18.2°C 48% 1.7 mph WNW2.7 kmh WNW 5.0 mph8.0 kmh 29.99 in1015.6 mb 0.00 in0.0 mm 0.00 in0.0 mm 0.00 in0.0 mm
06:53 PM 86.6°F30.3°C 64.7°F18.2°C 48% 1.4 mph WNW2.3 kmh WNW 6.0 mph9.7 kmh 29.99 in1015.6 mb 0.00 in0.0 mm 0.00 in0.0 mm 0.00 in0.0 mm
06:58 PM 86.6°F30.3°C 65.3°F18.5°C 49% 1.0 mph NW1.6 kmh NW 6.0 mph9.7 kmh 29.99 in1015.6 mb 0.00 in0.0 mm 0.00 in0.0 mm 0.00 in0.0 mm
07:03 PM 86.6°F30.3°C 65.3°F18.5°C 49% 1.0 mph NW1.6 kmh NW 6.0 mph9.7 kmh 29.99 in1015.6 mb 0.00 in0.0 mm 0.00 in0.0 mm 0.00 in0.0 mm
07:08 PM 86.6°F30.3°C 65.9°F18.8°C 50% Calm Calm 5.0 mph8.0 kmh 29.99 in1015.6 mb 0.00 in0.0 mm 0.00 in0.0 mm 0.00 in0.0 mm
07:13 PM 86.5°F30.3°C 65.2°F18.4°C 49% Calm Calm 5.0 mph8.0 kmh 29.99 in1015.6 mb 0.00 in0.0 mm 0.00 in0.0 mm 0.00 in0.0 mm
07:18 PM 86.0°F30.0°C 64.7°F18.2°C 49% Calm Calm 2.0 mph3.2 kmh 29.99 in1015.6 mb 0.00 in0.0 mm 0.00 in0.0 mm 0.00 in0.0 mm
07:23 PM 85.8°F29.9°C 64.6°F18.1°C 49% 1.5 mph NNW2.4 kmh NNW 2.0 mph3.2 kmh 29.99 in1015.6 mb 0.00 in0.0 mm 0.00 in0.0 mm 0.00 in0.0 mm
07:28 PM 85.6°F29.8°C 64.4°F18.0°C 49% 1.5 mph NW2.4 kmh NW 2.0 mph3.2 kmh 29.99 in1015.6 mb 0.00 in0.0 mm 0.00 in0.0 mm 0.00 in0.0 mm
07:33 PM 85.3°F29.6°C 64.7°F18.2°C 50% 1.1 mph WNW1.8 kmh WNW 3.0 mph4.8 kmh 29.99 in1015.6 mb 0.00 in0.0 mm 0.00 in0.0 mm 0.00 in0.0 mm
07:38 PM 85.0°F29.4°C 64.4°F18.0°C 50% Calm Calm 3.0 mph4.8 kmh 29.99 in1015.6 mb 0.00 in0.0 mm 0.00 in0.0 mm 0.00 in0.0 mm
07:43 PM 84.8°F29.3°C 64.7°F18.2°C 51% 1.0 mph N1.6 kmh N 3.0 mph4.8 kmh 29.99 in1015.6 mb 0.00 in0.0 mm 0.00 in0.0 mm 0.00 in0.0 mm
07:48 PM 84.5°F29.2°C 64.5°F18.1°C 51% 1.0 mph NNW1.6 kmh NNW 2.0 mph3.2 kmh 29.99 in1015.6 mb 0.00 in0.0 mm 0.00 in0.0 mm 0.00 in0.0 mm
07:53 PM 84.1°F28.9°C 64.7°F18.2°C 52% 1.0 mph NNW1.6 kmh NNW 1.0 mph1.6 kmh 29.99 in1015.6 mb 0.00 in0.0 mm 0.00 in0.0 mm 0.00 in0.0 mm
07:58 PM 83.8°F28.8°C 65.0°F18.3°C 53% Calm Calm 1.0 mph1.6 kmh 29.99 in1015.6 mb 0.00 in0.0 mm 0.00 in0.0 mm 0.00 in0.0 mm
08:03 PM 83.4°F28.6°C 65.2°F18.4°C 54% Calm Calm 1.0 mph1.6 kmh 29.99 in1015.6 mb 0.00 in0.0 mm 0.00 in0.0 mm 0.00 in0.0 mm
08:08 PM 83.3°F28.5°C 64.9°F18.3°C 54% 1.0 mph NNW1.6 kmh NNW 1.0 mph1.6 kmh 29.99 in1015.6 mb 0.00 in0.0 mm 0.00 in0.0 mm 0.00 in0.0 mm
08:13 PM 83.2°F28.4°C 65.0°F18.3°C 54% 1.2 mph NNW1.9 kmh NNW 2.0 mph3.2 kmh 29.99 in1015.6 mb 0.00 in0.0 mm 0.00 in0.0 mm 0.00 in0.0 mm
08:18 PM 83.2°F28.4°C 65.0°F18.3°C 54% Calm Calm 2.0 mph3.2 kmh 29.99 in1015.6 mb 0.00 in0.0 mm 0.00 in0.0 mm 0.00 in0.0 mm
08:23 PM 83.0°F28.3°C 65.4°F18.6°C 55% Calm Calm 2.0 mph3.2 kmh 30.00 in1015.9 mb 0.00 in0.0 mm 0.00 in0.0 mm 0.00 in0.0 mm
08:28 PM 82.8°F28.2°C 65.2°F18.4°C 55% Calm Calm 2.0 mph3.2 kmh 30.00 in1015.9 mb 0.00 in0.0 mm 0.00 in0.0 mm 0.00 in0.0 mm
08:33 PM 82.7°F28.2°C 65.1°F18.4°C 55% Calm Calm 1.0 mph1.6 kmh 30.00 in1015.9 mb 0.00 in0.0 mm 0.00 in0.0 mm 0.00 in0.0 mm
08:38 PM 82.6°F28.1°C 65.5°F18.6°C 56% Calm Calm -- 30.00 in1015.9 mb 0.00 in0.0 mm 0.00 in0.0 mm 0.00 in0.0 mm
08:43 PM 82.5°F28.1°C 65.4°F18.6°C 56% Calm Calm -- 30.00 in1015.9 mb 0.00 in0.0 mm 0.00 in0.0 mm 0.00 in0.0 mm
08:48 PM 82.3°F27.9°C 65.2°F18.4°C 56% Calm Calm -- 30.00 in1015.9 mb 0.00 in0.0 mm 0.00 in0.0 mm 0.00 in0.0 mm
08:53 PM 82.1°F27.8°C 64.8°F18.2°C 56% Calm Calm -- 30.00 in1015.9 mb 0.00 in0.0 mm 0.00 in0.0 mm 0.00 in0.0 mm
08:58 PM 82.0°F27.8°C 65.0°F18.3°C 56% Calm Calm -- 30.00 in1015.9 mb 0.00 in0.0 mm 0.00 in0.0 mm 0.00 in0.0 mm
09:03 PM 81.9°F27.7°C 64.9°F18.3°C 56% Calm Calm 1.0 mph1.6 kmh 30.00 in1015.9 mb 0.00 in0.0 mm 0.00 in0.0 mm 0.00 in0.0 mm
09:08 PM 81.8°F27.7°C 65.3°F18.5°C 57% 1.3 mph WNW2.1 kmh WNW 2.0 mph3.2 kmh 30.01 in1016.3 mb 0.00 in0.0 mm 0.00 in0.0 mm 0.00 in0.0 mm
09:13 PM 81.7°F27.6°C 65.7°F18.7°C 58% 1.0 mph WNW1.6 kmh WNW 2.0 mph3.2 kmh 30.01 in1016.3 mb 0.00 in0.0 mm 0.00 in0.0 mm 0.00 in0.0 mm
09:17 PM 81.6°F27.6°C 65.4°F18.6°C 58% 1.1 mph WNW1.8 kmh WNW 2.0 mph3.2 kmh 30.01 in1016.3 mb 0.00 in0.0 mm 0.00 in0.0 mm 0.00 in0.0 mm
09:22 PM 81.4°F27.4°C 65.9°F18.8°C 59% 1.0 mph NW1.6 kmh NW 2.0 mph3.2 kmh 30.01 in1016.3 mb 0.00 in0.0 mm 0.00 in0.0 mm 0.00 in0.0 mm
09:27 PM 81.2°F27.3°C 65.7°F18.7°C 59% 1.0 mph NW1.6 kmh NW 2.0 mph3.2 kmh 30.01 in1016.3 mb 0.00 in0.0 mm 0.00 in0.0 mm 0.00 in0.0 mm
09:32 PM 81.1°F27.3°C 66.1°F18.9°C 60% 1.0 mph WNW1.6 kmh WNW 2.0 mph3.2 kmh 30.02 in1016.6 mb 0.00 in0.0 mm 0.00 in0.0 mm 0.00 in0.0 mm
09:37 PM 80.9°F27.2°C 66.0°F18.9°C 60% 1.0 mph WNW1.6 kmh WNW 2.0 mph3.2 kmh 30.02 in1016.6 mb 0.00 in0.0 mm 0.00 in0.0 mm 0.00 in0.0 mm
09:42 PM 80.7°F27.1°C 66.0°F18.9°C 61% 1.1 mph WNW1.8 kmh WNW 2.0 mph3.2 kmh 30.02 in1016.6 mb 0.00 in0.0 mm 0.00 in0.0 mm 0.00 in0.0 mm
09:47 PM 80.6°F27.0°C 66.6°F19.2°C 62% 1.0 mph WNW1.6 kmh WNW 2.0 mph3.2 kmh 30.02 in1016.6 mb 0.00 in0.0 mm 0.00 in0.0 mm 0.00 in0.0 mm
09:52 PM 80.6°F27.0°C 67.1°F19.5°C 63% 1.0 mph WNW1.6 kmh WNW 2.0 mph3.2 kmh 30.03 in1016.9 mb 0.00 in0.0 mm 0.00 in0.0 mm 0.00 in0.0 mm
09:57 PM 80.6°F27.0°C 67.1°F19.5°C 63% 1.0 mph WNW1.6 kmh WNW 2.0 mph3.2 kmh 30.03 in1016.9 mb 0.00 in0.0 mm 0.00 in0.0 mm 0.00 in0.0 mm
10:02 PM 80.4°F26.9°C 67.4°F19.7°C 64% 1.1 mph WNW1.8 kmh WNW 2.0 mph3.2 kmh 30.03 in1016.9 mb 0.00 in0.0 mm 0.00 in0.0 mm 0.00 in0.0 mm
10:07 PM 80.4°F26.9°C 67.8°F19.9°C 65% 1.0 mph WNW1.6 kmh WNW 2.0 mph3.2 kmh 30.03 in1016.9 mb 0.00 in0.0 mm 0.00 in0.0 mm 0.00 in0.0 mm
10:12 PM 80.3°F26.8°C 67.7°F19.8°C 65% Calm Calm 2.0 mph3.2 kmh 30.03 in1016.9 mb 0.00 in0.0 mm 0.00 in0.0 mm 0.00 in0.0 mm
10:17 PM 80.3°F26.8°C 68.1°F20.1°C 66% 1.0 mph W1.6 kmh W 2.0 mph3.2 kmh 30.03 in1016.9 mb 0.00 in0.0 mm 0.00 in0.0 mm 0.00 in0.0 mm
10:22 PM 80.2°F26.8°C 68.1°F20.1°C 66% 1.0 mph W1.6 kmh W 2.0 mph3.2 kmh 30.03 in1016.9 mb 0.00 in0.0 mm 0.00 in0.0 mm 0.00 in0.0 mm
10:27 PM 80.1°F26.7°C 68.0°F20.0°C 66% 1.0 mph W1.6 kmh W 2.0 mph3.2 kmh 30.03 in1016.9 mb 0.00 in0.0 mm 0.00 in0.0 mm 0.00 in0.0 mm
10:32 PM 80.0°F26.7°C 68.3°F20.2°C 67% 1.0 mph W1.6 kmh W 2.0 mph3.2 kmh 30.03 in1016.9 mb 0.00 in0.0 mm 0.00 in0.0 mm 0.00 in0.0 mm
10:37 PM 80.0°F26.7°C 68.3°F20.2°C 67% Calm Calm 2.0 mph3.2 kmh 30.03 in1016.9 mb 0.00 in0.0 mm 0.00 in0.0 mm 0.00 in0.0 mm
10:42 PM 79.8°F26.6°C 67.9°F19.9°C 67% Calm Calm 2.0 mph3.2 kmh 30.03 in1016.9 mb 0.00 in0.0 mm 0.00 in0.0 mm 0.00 in0.0 mm
10:47 PM 79.7°F26.5°C 68.0°F20.0°C 67% Calm Calm 1.0 mph1.6 kmh 30.03 in1016.9 mb 0.00 in0.0 mm 0.00 in0.0 mm 0.00 in0.0 mm
10:52 PM 79.5°F26.4°C 68.2°F20.1°C 68% Calm Calm -- 30.03 in1016.9 mb 0.00 in0.0 mm 0.00 in0.0 mm 0.00 in0.0 mm
10:57 PM 79.4°F26.3°C 68.1°F20.1°C 68% Calm Calm -- 30.03 in1016.9 mb 0.00 in0.0 mm 0.00 in0.0 mm 0.00 in0.0 mm
11:02 PM 79.4°F26.3°C 67.9°F19.9°C 68% Calm Calm 1.0 mph1.6 kmh 30.03 in1016.9 mb 0.00 in0.0 mm 0.00 in0.0 mm 0.00 in0.0 mm
11:07 PM 79.3°F26.3°C 68.1°F20.1°C 68% 1.0 mph W1.6 kmh W 1.0 mph1.6 kmh 30.04 in1017.3 mb 0.00 in0.0 mm 0.00 in0.0 mm 0.00 in0.0 mm
11:12 PM 79.2°F26.2°C 68.0°F20.0°C 68% Calm Calm 1.0 mph1.6 kmh 30.04 in1017.3 mb 0.00 in0.0 mm 0.00 in0.0 mm 0.00 in0.0 mm
11:17 PM 79.2°F26.2°C 68.0°F20.0°C 68% Calm Calm 1.0 mph1.6 kmh 30.03 in1016.9 mb 0.00 in0.0 mm 0.00 in0.0 mm 0.00 in0.0 mm
11:22 PM 79.1°F26.2°C 67.9°F19.9°C 68% 1.0 mph W1.6 kmh W 1.0 mph1.6 kmh 30.03 in1016.9 mb 0.00 in0.0 mm 0.00 in0.0 mm 0.00 in0.0 mm
11:27 PM 79.1°F26.2°C 67.9°F19.9°C 68% 1.0 mph W1.6 kmh W 1.0 mph1.6 kmh 30.03 in1016.9 mb 0.00 in0.0 mm 0.00 in0.0 mm 0.00 in0.0 mm
11:32 PM 79.0°F26.1°C 67.5°F19.7°C 68% Calm Calm 1.0 mph1.6 kmh 30.03 in1016.9 mb 0.00 in0.0 mm 0.00 in0.0 mm 0.00 in0.0 mm
11:37 PM 78.9°F26.1°C 67.7°F19.8°C 68% Calm Calm 1.0 mph1.6 kmh 30.03 in1016.9 mb 0.00 in0.0 mm 0.00 in0.0 mm 0.00 in0.0 mm
11:42 PM 78.6°F25.9°C 67.8°F19.9°C 69% Calm Calm 1.0 mph1.6 kmh 30.03 in1016.9 mb 0.00 in0.0 mm 0.00 in0.0 mm 0.00 in0.0 mm
11:47 PM 78.5°F25.8°C 67.7°F19.8°C 69% Calm Calm 1.0 mph1.6 kmh 30.03 in1016.9 mb 0.00 in0.0 mm 0.00 in0.0 mm 0.00 in0.0 mm
11:52 PM 78.3°F25.7°C 67.9°F19.9°C 70% Calm Calm -- 30.03 in1016.9 mb 0.00 in0.0 mm 0.00 in0.0 mm 0.00 in0.0 mm
11:57 PM 78.1°F25.6°C 67.7°F19.8°C 70% Calm Calm -- 30.03 in1016.9 mb 0.00 in0.0 mm 0.00 in0.0 mm 0.00 in0.0 mm